Terminal Aerodrome Forecast
Issued by NWS Glasgow, MT

Home | Current Version | Previous Version | Text Only | Print | Product List | Glossary On
Versions: 1 2 3 4 5 6 7 8 9 10 11 12 13 14 15 16
428
FTUS45 KGGW 052338
TAFGGW
TAF
KGGW 052338Z 0600/0624 31019G28KT P6SM BKN025
     FM060100 31014KT P6SM BKN020
     FM061400 31013G21KT P6SM BKN015=

USA.gov is the U.S. government's official web portal to all federal, state and local government web resources and services.